map of XNA home
XNA - Airport
Location
City:  Fayetteville/Springdale/Rogers, Arkansas, United States
Name:Northwest Arkansas Regional
ICAO:KXNA
IATA:XNA
FAA LID:XNA

Details
Type:Airport (Part 139 Class I)
Use:Public/Civil
Latitude:3616'54"N (36.281579)
Longitude:9418'28"W (-94.307765)
Datum:WGS 1984
Elevation:1288 ft (393 m)
Variation:1.52E (WMM2015 magnetic declination)
-0.10 annual change
Runways:2
Longest:8801 × 150 ft (2683 × 45.5 m), paved

Time
Time Zone:UTC-6 (DST-5)
Local Time:

Weather
METAR:KXNA 182153Z 16004KT 10SM FEW060 33/19 A2994 RMK AO2 SLP122 T03330194
TAF:KXNA 181720Z 1818/1918 20006KT P6SM BKN060
FM190100 18002KT P6SM SCT250

Related Locations
Nearby:
Farthest:YAUG: 10779 mi / 17348 km
Augusta [Augusta Airport], WA, AU

Find:

   beyond  
but within

Other Information
Maps:
Delays:
NOTAMs:
Links:
Sources:

  
  • flag of United States
  • flag of Arkansas
  

Airport Diagram

Airport diagram for XNA

Airport diagram PDF

Sectional Chart

Flight Planning
at skyvector.com

Satellite Image

Google Maps Satellite view

 

Copyright © 2004-2018 Karl L. Swartz. All rights reserved.
The Great Circle Mapper name and logo are trademarks of the Great Circle Mapper.
All other trademarks mentioned herein belong to their respective owners.
Please see credits for attibutions and further copyright information.

  Follow gcmap on Facebook Follow gcmap on Twitter Follow gcmap on Google+ GCmap on LinkedIn

hCard Microformat

Geo Microformat